Time;durP1;ratioP1;P1;durP2;ratioP2;P2;SDS_P1;SDS_P2;PMS_P1;PMS_P2;Temp;Humidity;BMP_temperature;BMP_pressure;BME280_temperature;BME280_humidity;BME280_pressure;Samples;Min_cycle;Max_cycle;Signal;HPM_P1;HPM_P2
2024/01/08 05:05:44;;;;;;;11.52;6.93;;;;;;;-1.25;100.00;68355.06;5856230;27;20134;-91
2024/01/08 05:08:48;;;;;;;13.52;6.85;;;;;;;-1.22;100.00;68366.38;5330911;33;33625;-87
2024/01/08 05:11:51;;;;;;;20.55;7.65;;;;;;;-1.20;100.00;68419.03;5319381;33;33675;-86
2024/01/08 05:14:54;;;;;;;11.23;6.95;;;;;;;-1.14;100.00;68370.34;5330570;33;34542;-86
2024/01/08 05:17:57;;;;;;;12.37;7.20;;;;;;;-1.13;100.00;68373.53;5343471;33;34533;-86
2024/01/08 05:21:01;;;;;;;11.85;6.65;;;;;;;-1.15;100.00;68371.78;5343585;33;34104;-86
2024/01/08 05:24:05;;;;;;;16.30;7.93;;;;;;;-1.07;100.00;68375.19;5331022;33;34301;-86
2024/01/08 05:27:08;;;;;;;13.88;6.30;;;;;;;-1.15;100.00;68427.41;5344287;33;34155;-86
2024/01/08 05:30:11;;;;;;;12.90;6.40;;;;;;;-1.12;100.00;68372.63;5319273;33;34046;-86
2024/01/08 05:33:14;;;;;;;12.18;7.03;;;;;;;-1.04;100.00;68378.63;5331006;33;34704;-86
2024/01/08 05:36:17;;;;;;;14.43;6.70;;;;;;;-1.16;100.00;68426.25;5331065;33;34504;-86
2024/01/08 05:39:20;;;;;;;14.35;6.90;;;;;;;-1.19;100.00;68364.59;5342486;33;33786;-86
2024/01/08 05:42:23;;;;;;;14.65;7.15;;;;;;;-1.14;100.00;68367.72;5344515;33;34098;-86
2024/01/08 05:45:26;;;;;;;14.87;7.15;;;;;;;-1.17;100.00;68366.88;5334037;33;35395;-85
2024/01/08 05:48:30;;;;;;;17.60;7.32;;;;;;;-1.20;100.00;68360.78;5329446;33;33994;-86
2024/01/08 05:51:33;;;;;;;16.42;7.07;;;;;;;-1.21;100.00;68417.31;5330180;33;33887;-86
2024/01/08 05:54:36;;;;;;;18.05;8.52;;;;;;;-1.35;100.00;68346.75;5342665;33;33786;-86
2024/01/08 05:57:39;;;;;;;15.70;7.65;;;;;;;-1.41;100.00;68343.03;5343394;33;33694;-86
2024/01/08 06:00:42;;;;;;;15.10;7.87;;;;;;;-1.30;100.00;68351.94;5327499;33;34145;-86
2024/01/08 06:03:45;;;;;;;15.90;7.53;;;;;;;-1.32;100.00;68347.56;5329445;33;34885;-85
2024/01/08 06:06:50;;;;;;;12.75;6.70;;;;;;;-1.26;100.00;68414.16;5353537;33;33758;-86
2024/01/08 06:09:53;;;;;;;17.58;7.95;;;;;;;-1.26;100.00;68356.53;5342239;33;33313;-86
2024/01/08 06:12:56;;;;;;;15.57;7.10;;;;;;;-1.23;100.00;68359.97;5343817;33;33728;-86
2024/01/08 06:15:59;;;;;;;14.80;7.82;;;;;;;-1.26;100.00;68357.09;5343341;33;34557;-85
2024/01/08 06:19:02;;;;;;;14.50;7.25;;;;;;;-1.16;100.00;68371.22;5343533;33;33738;-86
2024/01/08 06:22:06;;;;;;;15.80;8.45;;;;;;;-1.10;100.00;68374.34;5349324;33;34038;-86
2024/01/08 06:25:08;;;;;;;18.62;8.82;;;;;;;-1.09;100.00;68378.69;5343497;33;34854;-85
2024/01/08 06:28:12;;;;;;;14.73;8.27;;;;;;;-1.19;100.00;68362.53;5343073;33;33793;-85
2024/01/08 06:31:15;;;;;;;18.58;9.13;;;;;;;-1.15;100.00;68372.38;5342355;33;35098;-85
2024/01/08 06:34:18;;;;;;;13.88;7.25;;;;;;;-1.10;100.00;68379.59;5340201;33;33675;-85
2024/01/08 06:37:21;;;;;;;22.77;9.63;;;;;;;-1.19;100.00;68365.16;5327776;33;33802;-85
2024/01/08 06:40:24;;;;;;;16.25;7.57;;;;;;;-1.27;100.00;68358.00;5336539;33;33660;-84
2024/01/08 06:43:27;;;;;;;14.65;7.60;;;;;;;-1.30;100.00;68351.94;5329813;33;33167;-84
2024/01/08 06:46:30;;;;;;;18.67;9.13;;;;;;;-1.41;100.00;68339.84;5325926;33;33408;-85
2024/01/08 06:49:35;;;;;;;16.27;7.87;;;;;;;-1.39;100.00;68400.34;5336521;33;34084;-84
2024/01/08 06:52:38;;;;;;;20.55;8.63;;;;;;;-1.39;100.00;68399.78;5330635;33;34640;-84
2024/01/08 06:55:47;;;;;;;15.30;7.78;;;;;;;-1.42;100.00;68336.09;5326581;33;34128;-84
2024/01/08 06:58:50;;;;;;;15.18;8.15;;;;;;;-1.43;100.00;68395.75;5332468;33;34597;-84
2024/01/08 07:01:53;;;;;;;15.50;7.85;;;;;;;-1.38;100.00;68340.69;5330738;33;33724;-84
2024/01/08 07:04:56;;;;;;;15.35;7.80;;;;;;;-1.37;100.00;68344.47;5337748;33;32504;-84
2024/01/08 07:07:59;;;;;;;13.35;7.50;;;;;;;-1.29;100.00;68411.28;5311481;33;33727;-83
2024/01/08 07:11:03;;;;;;;14.55;7.53;;;;;;;-1.18;100.00;68423.38;5312877;33;34510;-84
2024/01/08 07:14:06;;;;;;;12.98;6.57;;;;;;;-1.24;100.00;68364.63;5311453;33;33862;-88
2024/01/08 07:17:10;;;;;;;15.98;7.28;;;;;;;-1.08;100.00;68377.25;5324913;33;33809;-88
2024/01/08 07:20:13;;;;;;;20.88;8.80;;;;;;;-1.11;100.00;68373.19;5311303;33;33739;-88
2024/01/08 07:23:16;;;;;;;20.67;8.57;;;;;;;-1.08;100.00;68376.66;5325357;33;33359;-85
2024/01/08 07:26:19;;;;;;;17.95;8.38;;;;;;;-1.09;100.00;68373.44;5309602;33;34029;-83
2024/01/08 07:29:22;;;;;;;19.65;9.57;;;;;;;-1.02;100.00;68383.56;5318120;33;33701;-84
2024/01/08 07:32:25;;;;;;;18.02;8.75;;;;;;;-1.08;100.00;68379.25;5319005;33;33754;-85
2024/01/08 07:35:29;;;;;;;15.32;7.12;;;;;;;-1.01;100.00;68384.72;5299668;33;33876;-86
2024/01/08 07:38:32;;;;;;;16.45;8.20;;;;;;;-0.98;100.00;68443.78;5303159;33;33832;-83
2024/01/08 07:41:36;;;;;;;19.12;8.65;;;;;;;-1.00;100.00;68385.84;5325410;33;33112;-84
2024/01/08 07:44:39;;;;;;;18.23;8.27;;;;;;;-0.96;100.00;68448.13;5307954;33;33658;-84
2024/01/08 07:47:42;;;;;;;16.90;7.50;;;;;;;-0.93;100.00;68391.28;5320728;33;33548;-84
2024/01/08 07:50:46;;;;;;;15.90;8.38;;;;;;;-0.95;100.00;68392.19;5313794;33;34006;-84
2024/01/08 07:53:51;;;;;;;12.07;7.05;;;;;;;-0.94;100.00;68392.75;5298694;33;34232;-84
2024/01/08 07:56:54;;;;;;;17.33;8.70;;;;;;;-0.87;100.00;68453.25;5321343;33;33938;-84
2024/01/08 08:00:10;;;;;;;16.62;8.07;;;;;;;-0.82;100.00;68461.63;5312279;33;34927;-84
2024/01/08 08:03:13;;;;;;;16.23;7.40;;;;;;;-0.90;100.00;68455.03;5306196;33;33843;-84
2024/01/08 08:06:16;;;;;;;16.05;7.35;;;;;;;-0.82;100.00;68406.56;5321307;33;33666;-84
2024/01/08 08:09:20;;;;;;;13.45;7.35;;;;;;;-0.74;100.00;68473.44;5330905;33;33936;-83
2024/01/08 08:12:23;;;;;;;17.62;8.18;;;;;;;-0.66;100.00;68423.81;5343397;33;33230;-83
2024/01/08 08:15:26;;;;;;;15.60;7.72;;;;;;;-0.73;100.00;68414.28;5337585;33;33588;-83
2024/01/08 08:18:29;;;;;;;19.30;8.60;;;;;;;-0.76;100.00;68465.31;5331654;33;34097;-83
2024/01/08 08:21:38;;;;;;;19.30;9.10;;;;;;;-0.72;100.00;68417.50;5349938;33;34043;-83
2024/01/08 08:24:41;;;;;;;16.98;8.35;;;;;;;-0.70;100.00;68420.38;5357346;33;35324;-84
2024/01/08 08:27:45;;;;;;;17.48;9.20;;;;;;;-0.63;100.00;68484.97;5344200;33;33740;-85
2024/01/08 08:30:48;;;;;;;16.60;7.53;;;;;;;-0.53;100.00;68493.84;5330404;33;33595;-86
2024/01/08 08:33:51;;;;;;;16.17;8.05;;;;;;;-0.41;100.00;68452.00;5331167;33;34036;-85
2024/01/08 08:36:56;;;;;;;15.70;7.85;;;;;;;-0.45;100.00;68450.59;5330178;33;33895;-86
2024/01/08 08:39:59;;;;;;;22.25;9.35;;;;;;;-0.32;100.00;68459.72;5325865;33;33666;-86
2024/01/08 08:43:01;;;;;;;16.87;7.75;;;;;;;-0.22;100.00;68473.31;5347654;33;34625;-85
2024/01/08 08:46:04;;;;;;;16.52;8.30;;;;;;;-0.22;100.00;68475.94;5347052;33;33868;-86
2024/01/08 08:49:09;;;;;;;16.27;8.25;;;;;;;-0.16;100.00;68478.16;5331736;33;34029;-86
2024/01/08 08:52:13;;;;;;;13.85;8.20;;;;;;;-0.12;100.00;68484.81;5341612;33;33605;-86
2024/01/08 08:55:16;;;;;;;16.20;7.43;;;;;;;-0.09;100.00;68488.25;5364177;33;33865;-85
2024/01/08 08:58:20;;;;;;;14.30;7.50;;;;;;;-0.04;100.00;68497.22;5366174;33;35418;-85
2024/01/08 09:01:23;;;;;;;15.70;7.18;;;;;;;-0.02;100.00;68496.34;5342106;33;33205;-85
2024/01/08 09:04:26;;;;;;;16.77;6.90;;;;;;;0.09;100.00;68506.38;5354767;33;33821;-86
2024/01/08 09:07:30;;;;;;;12.27;7.05;;;;;;;0.28;100.00;68584.88;5359741;33;33930;-86
2024/01/08 09:10:34;;;;;;;14.95;7.60;;;;;;;0.30;100.00;68589.81;5348500;33;33731;-85
2024/01/08 09:13:36;;;;;;;14.70;7.57;;;;;;;0.33;100.00;68533.44;5339004;33;33892;-86
2024/01/08 09:16:39;;;;;;;18.90;8.30;;;;;;;0.50;100.00;68609.66;5353610;33;33377;-90
2024/01/08 09:19:42;;;;;;;14.95;7.07;;;;;;;0.72;100.00;68579.25;5342595;33;34538;-90
2024/01/08 09:22:48;;;;;;;17.20;7.62;;;;;;;0.52;100.00;68612.53;5347053;33;34293;-90
2024/01/08 09:25:52;;;;;;;16.10;8.63;;;;;;;0.40;100.00;68598.72;5343736;33;33494;-86
2024/01/08 09:28:56;;;;;;;18.75;8.35;;;;;;;0.51;100.00;68555.63;5342508;33;33449;-86
2024/01/08 09:31:59;;;;;;;15.27;7.70;;;;;;;0.42;100.00;68601.03;5330034;33;33317;-85
2024/01/08 09:35:02;;;;;;;17.20;8.25;;;;;;;0.47;100.00;68608.81;5331997;33;34073;-87
2024/01/08 09:38:05;;;;;;;16.75;7.78;;;;;;;0.52;100.00;68559.97;5331313;33;33569;-85
2024/01/08 09:41:12;;;;;;;10.50;6.68;;;;;;;0.67;100.00;68576.69;5338964;33;34970;-87
2024/01/08 09:44:26;;;;;;;16.98;7.78;;;;;;;0.74;100.00;68581.56;5361923;33;33572;-86
2024/01/08 09:47:31;;;;;;;15.48;8.38;;;;;;;0.70;100.00;68580.13;5360905;27;34088;-85
2024/01/08 09:50:51;;;;;;;13.80;7.43;;;;;;;0.63;100.00;68570.03;5325817;33;31901;-86
2024/01/08 09:54:00;;;;;;;13.73;6.97;;;;;;;0.65;100.00;68630.16;5332305;33;33668;-90
2024/01/08 09:57:04;;;;;;;14.32;6.97;;;;;;;0.75;100.00;68583.28;5326045;33;33842;-91
2024/01/08 10:00:09;;;;;;;12.52;7.20;;;;;;;0.84;100.00;68593.63;5312899;33;33706;-87
2024/01/08 10:03:13;;;;;;;16.12;7.50;;;;;;;1.15;100.00;68625.03;5322078;33;33479;-86
2024/01/08 10:06:17;;;;;;;16.30;7.93;;;;;;;1.19;100.00;68690.69;5312021;33;34498;-86
2024/01/08 10:09:20;;;;;;;12.88;7.85;;;;;;;1.16;100.00;68686.66;5306389;33;33375;-86
2024/01/08 10:12:23;;;;;;;13.95;7.25;;;;;;;1.21;100.00;68631.94;5311496;33;35094;-86
2024/01/08 10:15:27;;;;;;;18.52;8.35;;;;;;;1.25;100.00;68639.75;5320180;33;33648;-87
2024/01/08 10:18:30;;;;;;;15.77;7.70;;;;;;;1.44;100.00;68716.34;5333532;33;34672;-86
2024/01/08 10:21:34;;;;;;;16.05;7.87;;;;;;;1.52;100.00;68670.31;5318520;33;33252;-86
2024/01/08 10:24:39;;;;;;;11.23;6.28;;;;;;;1.71;100.00;68691.06;5325663;33;34619;-86
2024/01/08 10:27:42;;;;;;;17.20;7.45;;;;;;;1.63;100.00;68681.81;5314769;33;34389;-86
2024/01/08 10:30:45;;;;;;;13.20;7.75;;;;;;;1.70;100.00;68689.91;5333785;33;33737;-86
2024/01/08 10:33:48;;;;;;;17.87;7.87;;;;;;;1.79;100.00;68700.28;5330778;33;33737;-86
2024/01/08 10:36:51;;;;;;;14.63;7.32;;;;;;;1.75;100.00;68696.22;5319545;33;33725;-87
2024/01/08 10:39:56;;;;;;;17.37;7.85;;;;;;;1.84;100.00;68763.97;5315986;33;33853;-86
2024/01/08 10:42:59;;;;;;;13.05;7.32;;;;;;;1.73;100.00;68748.66;5328084;33;34480;-86
2024/01/08 10:46:04;;;;;;;18.58;8.27;;;;;;;1.91;100.00;68716.75;5333889;33;32383;-86
2024/01/08 10:49:16;;;;;;;12.25;7.28;;;;;;;1.99;100.00;68781.31;5330489;33;33709;-87
2024/01/08 10:52:22;;;;;;;16.87;7.85;;;;;;;2.12;100.00;68734.56;5323730;33;33612;-86
2024/01/08 10:55:26;;;;;;;13.38;7.32;;;;;;;2.07;100.00;68734.63;5330424;27;34290;-86
2024/01/08 10:58:37;;;;;;;12.93;6.53;;;;;;;2.15;100.00;68740.66;5342193;33;34185;-86
2024/01/08 11:01:41;;;;;;;16.02;7.70;;;;;;;2.22;100.00;68748.72;5349064;33;33851;-86
2024/01/08 11:04:44;;;;;;;16.55;7.15;;;;;;;2.29;100.00;68814.78;5339211;33;34075;-86
2024/01/08 11:07:49;;;;;;;14.98;7.65;;;;;;;2.43;100.00;68830.97;5339890;33;34259;-86
2024/01/08 11:10:52;;;;;;;13.68;7.07;;;;;;;2.71;100.00;68860.06;5346157;33;33763;-86
2024/01/08 11:13:56;;;;;;;16.17;6.97;;;;;;;2.57;100.00;68846.53;5325758;33;34449;-86
2024/01/08 11:17:00;;;;;;;8.77;5.62;;;;;;;2.79;100.00;68813.34;5302095;33;33618;-86
2024/01/08 11:20:06;;;;;;;15.35;6.90;;;;;;;2.79;100.00;68818.63;5339124;33;33895;-86
2024/01/08 11:23:32;;;;;;;9.43;4.90;;;;;;;2.90;100.00;68826.06;5328927;33;33880;-86
2024/01/08 11:26:48;;;;;;;10.80;5.45;;;;;;;2.95;100.00;68831.22;5349929;33;34741;-91
2024/01/08 11:29:57;;;;;;;6.43;3.85;;;;;;;3.33;100.00;68877.16;5322023;33;33857;-87
2024/01/08 11:33:47;;;;;;;6.57;3.85;;;;;;;3.48;91.99;68949.41;5330553;33;33701;-86
2024/01/08 11:36:54;;;;;;;5.62;3.35;;;;;;;3.51;89.62;68896.81;5328113;33;33669;-86
2024/01/08 11:40:00;;;;;;;6.93;3.92;;;;;;;3.74;87.61;68923.38;5337546;33;34058;-85
2024/01/08 11:43:05;;;;;;;7.35;3.90;;;;;;;3.67;85.73;68970.78;5327684;33;33780;-85
2024/01/08 11:46:09;;;;;;;4.20;3.10;;;;;;;3.53;87.56;68896.47;5323012;33;33883;-86
2024/01/08 11:49:12;;;;;;;10.38;3.80;;;;;;;3.71;87.02;68917.28;5324900;33;34543;-86
2024/01/08 11:52:16;;;;;;;10.00;5.00;;;;;;;3.65;86.83;68910.34;5340124;33;34513;-85
2024/01/08 11:55:20;;;;;;;15.88;6.62;;;;;;;3.66;89.00;68910.91;5354733;33;32325;-86
2024/01/08 11:58:23;;;;;;;12.48;6.40;;;;;;;3.41;92.44;68941.88;5304998;33;34016;-85
2024/01/08 12:01:27;;;;;;;13.38;6.03;;;;;;;3.25;94.33;68867.38;5331662;33;33493;-84
2024/01/08 12:04:30;;;;;;;11.77;6.45;;;;;;;3.17;95.50;68856.63;5306396;33;33630;-85
2024/01/08 12:07:34;;;;;;;14.38;6.35;;;;;;;3.11;96.66;68849.13;5318227;33;34741;-85
2024/01/08 12:10:37;;;;;;;10.10;6.18;;;;;;;2.81;96.31;68815.66;5317969;33;33536;-85
2024/01/08 12:13:40;;;;;;;12.63;6.25;;;;;;;2.67;95.78;68800.06;5331924;33;33510;-85
2024/01/08 12:16:44;;;;;;;9.55;6.05;;;;;;;2.55;98.14;68788.28;5331085;33;33679;-85
2024/01/08 12:20:04;;;;;;;10.95;6.37;;;;;;;2.50;100.00;68778.38;5318635;33;34904;-84
2024/01/08 12:23:07;;;;;;;15.27;6.37;;;;;;;2.50;100.00;68785.72;5330124;33;34021;-85
2024/01/08 12:26:11;;;;;;;11.38;5.65;;;;;;;2.49;100.00;68779.88;5330297;33;33984;-84
2024/01/08 12:29:16;;;;;;;12.77;5.82;;;;;;;2.33;99.11;68816.75;5330198;33;33529;-84
2024/01/08 12:32:21;;;;;;;11.63;5.55;;;;;;;2.03;100.00;68730.03;5329737;33;33920;-89
2024/01/08 12:35:24;;;;;;;13.00;6.35;;;;;;;2.15;99.24;68740.66;5328176;33;34667;-89
2024/01/08 12:38:30;;;;;;;11.10;5.72;;;;;;;2.42;98.61;68827.16;5318190;33;34126;-90
2024/01/08 12:41:34;;;;;;;10.55;5.20;;;;;;;3.80;90.69;68927.69;5331184;33;33841;-86
2024/01/08 12:44:37;;;;;;;12.05;4.87;;;;;;;5.45;79.24;69116.50;5304403;33;34180;-86
2024/01/08 12:47:40;;;;;;;12.23;5.68;;;;;;;6.89;69.25;69281.84;5327021;33;33842;-86
2024/01/08 12:50:44;;;;;;;10.32;5.28;;;;;;;8.28;59.48;69436.88;5316234;33;34523;-86
2024/01/08 12:53:47;;;;;;;11.27;6.30;;;;;;;9.90;51.53;69620.88;5329452;33;33540;-85
2024/01/08 12:56:50;;;;;;;13.13;6.50;;;;;;;8.70;52.01;69487.13;5317496;33;33986;-86
2024/01/08 12:59:55;;;;;;;14.15;5.90;;;;;;;8.75;52.16;69490.28;5330797;33;33782;-86
2024/01/08 13:02:59;;;;;;;11.65;6.18;;;;;;;9.01;51.79;69522.53;5339023;33;34734;-86
2024/01/08 13:06:03;;;;;;;11.20;6.10;;;;;;;7.65;55.68;69368.78;5338161;33;34836;-86
2024/01/08 13:09:10;;;;;;;11.60;5.95;;;;;;;5.82;61.82;69214.41;5318738;33;34994;-86
2024/01/08 13:12:13;;;;;;;12.75;6.35;;;;;;;4.54;68.17;69014.13;5326268;33;34235;-86
2024/01/08 13:15:16;;;;;;;11.48;6.30;;;;;;;3.75;72.55;68921.91;5317051;33;33920;-86
2024/01/08 13:18:19;;;;;;;12.93;5.43;;;;;;;3.12;74.86;68908.94;5325902;33;34875;-86
2024/01/08 13:21:22;;;;;;;7.62;4.95;;;;;;;2.67;78.49;68800.06;5325250;33;34012;-86
2024/01/08 13:24:26;;;;;;;11.70;5.53;;;;;;;2.37;81.85;68765.44;5303564;33;33839;-86
2024/01/08 13:27:30;;;;;;;11.48;6.12;;;;;;;2.16;85.71;68741.78;5314474;33;33465;-85
2024/01/08 13:30:33;;;;;;;12.18;5.28;;;;;;;2.03;86.09;68785.34;5317738;33;33866;-86
2024/01/08 13:33:36;;;;;;;9.93;5.87;;;;;;;2.01;90.58;68725.66;5309566;33;33452;-85
2024/01/08 13:36:40;;;;;;;11.00;5.18;;;;;;;1.87;88.73;68706.84;5317185;33;33459;-84
2024/01/08 13:39:44;;;;;;;12.88;6.05;;;;;;;1.88;94.40;68710.09;5326019;33;34518;-85
2024/01/08 13:42:51;;;;;;;11.70;5.47;;;;;;;1.81;94.87;68703.16;5319833;33;35569;-84
2024/01/08 13:45:55;;;;;;;11.15;5.65;;;;;;;1.80;99.16;68704.63;5325715;33;33802;-84
2024/01/08 13:48:58;;;;;;;10.70;5.57;;;;;;;1.86;98.70;68713.03;5333438;33;33890;-84
2024/01/08 13:52:03;;;;;;;18.85;5.45;;;;;;;1.98;99.54;68776.94;5332363;33;34538;-84
2024/01/08 13:55:12;;;;;;;13.00;6.35;;;;;;;2.03;96.57;68727.97;5334643;33;33489;-83
2024/01/08 13:58:17;;;;;;;20.98;6.35;;;;;;;2.19;94.78;68745.81;5329061;33;33912;-84
2024/01/08 14:01:20;;;;;;;8.98;5.57;;;;;;;2.37;92.78;68766.03;5323981;33;35001;-84
2024/01/08 14:04:24;;;;;;;9.82;5.07;;;;;;;2.47;93.67;68777.56;5310859;33;34835;-85
2024/01/08 14:07:27;;;;;;;11.38;6.20;;;;;;;2.46;91.46;68775.84;5325691;33;34495;-84
2024/01/08 14:10:30;;;;;;;13.57;5.97;;;;;;;2.53;91.01;68783.91;5325573;33;33799;-85
2024/01/08 14:13:33;;;;;;;12.60;6.00;;;;;;;2.46;91.76;68779.06;5328298;33;33912;-84
2024/01/08 14:16:36;;;;;;;10.93;5.47;;;;;;;2.33;92.72;68766.09;5313835;33;34115;-87
2024/01/08 14:19:38;;;;;;;8.63;5.45;;;;;;;2.16;94.87;68744.44;5315451;33;32695;-84
2024/01/08 14:22:42;;;;;;;5.03;3.53;;;;;;;2.19;91.23;68803.81;5318614;33;33812;-84
2024/01/08 14:25:44;;;;;;;4.62;2.75;;;;;;;2.24;79.71;68751.59;5333359;33;34060;-84
2024/01/08 14:28:47;;;;;;;5.43;3.03;;;;;;;2.36;78.43;68764.88;5326616;33;34013;-84
2024/01/08 14:31:52;;;;;;;6.70;2.95;;;;;;;2.37;77.19;68823.44;5326434;33;33789;-84
2024/01/08 14:34:57;;;;;;;3.90;3.10;;;;;;;2.49;74.12;68837.31;5326190;33;34019;-89
2024/01/08 14:38:02;;;;;;;3.47;3.00;;;;;;;2.47;73.36;68777.00;5318374;33;33926;-89
2024/01/08 14:41:06;;;;;;;6.40;4.10;;;;;;;2.43;72.05;68772.97;5330449;33;36400;-86
2024/01/08 14:44:09;;;;;;;5.78;3.37;;;;;;;2.36;71.88;68764.28;5341947;33;34302;-86
2024/01/08 14:47:13;;;;;;;4.12;2.72;;;;;;;2.29;73.02;68759.44;5324435;33;34628;-85
2024/01/08 14:50:16;;;;;;;4.80;3.20;;;;;;;2.31;71.67;68761.16;5336647;33;33800;-84
2024/01/08 14:53:23;;;;;;;4.15;3.05;;;;;;;2.23;70.51;68755.16;5335385;33;33449;-84
2024/01/08 14:56:25;;;;;;;5.75;3.37;;;;;;;2.17;69.73;68743.53;5324757;33;36116;-86
2024/01/08 14:59:31;;;;;;;5.97;2.97;;;;;;;2.11;70.82;68736.03;5331348;33;35515;-85
2024/01/08 15:02:33;;;;;;;7.10;4.05;;;;;;;2.08;72.59;68732.56;5338967;33;33909;-85
2024/01/08 15:05:36;;;;;;;9.80;4.78;;;;;;;1.99;75.72;68723.34;5325308;33;34172;-85
2024/01/08 15:08:39;;;;;;;11.15;5.97;;;;;;;1.83;85.30;68701.69;5329155;33;35431;-85
2024/01/08 15:11:43;;;;;;;14.48;6.40;;;;;;;1.56;93.86;68674.34;5326509;33;34170;-85
2024/01/08 15:14:47;;;;;;;12.25;6.30;;;;;;;1.33;98.33;68706.28;5323868;33;34189;-85
2024/01/08 15:17:50;;;;;;;14.32;6.68;;;;;;;1.13;100.00;68628.53;5325479;33;33983;-85
2024/01/08 15:20:53;;;;;;;10.82;5.82;;;;;;;0.88;100.00;68598.25;5324105;33;35395;-85
2024/01/08 15:23:56;;;;;;;14.48;6.55;;;;;;;0.82;100.00;68593.97;5294404;33;34005;-85
2024/01/08 15:26:59;;;;;;;12.60;6.85;;;;;;;0.75;100.00;68640.53;5296949;33;34651;-85
2024/01/08 15:30:07;;;;;;;14.95;7.00;;;;;;;0.63;100.00;68627.84;5323980;33;33626;-85
2024/01/08 15:33:11;;;;;;;21.63;7.07;;;;;;;0.55;100.00;68563.44;5337961;33;135474;-85
2024/01/08 15:36:17;;;;;;;10.95;6.50;;;;;;;0.54;100.00;68562.28;5318097;33;33681;-85
2024/01/08 15:39:19;;;;;;;13.85;7.10;;;;;;;0.30;100.00;68534.66;5339006;33;34764;-85
2024/01/08 15:42:22;;;;;;;15.80;7.18;;;;;;;0.17;100.00;68518.19;5320942;33;33813;-85
2024/01/08 15:45:25;;;;;;;12.45;7.28;;;;;;;0.21;100.00;68519.63;5296659;33;34727;-85
2024/01/08 15:48:29;;;;;;;14.02;6.93;;;;;;;0.12;100.00;68511.88;5313926;33;34256;-85
2024/01/08 15:51:32;;;;;;;18.40;7.90;;;;;;;-0.01;100.00;68498.03;5334000;33;34519;-84
2024/01/08 15:54:35;;;;;;;12.15;6.70;;;;;;;-0.02;100.00;68554.09;5329651;33;34504;-85
2024/01/08 15:57:38;;;;;;;13.32;6.93;;;;;;;-0.12;100.00;68490.06;5341876;33;34021;-85
2024/01/08 16:00:41;;;;;;;13.20;6.32;;;;;;;-0.09;100.00;68488.25;5342438;33;33952;-85
2024/01/08 16:03:47;;;;;;;15.30;7.53;;;;;;;-0.01;100.00;68555.25;5293838;33;33732;-85
2024/01/08 16:06:53;;;;;;;14.93;7.07;;;;;;;0.02;100.00;68503.56;5305328;33;35324;-85
2024/01/08 16:09:57;;;;;;;13.88;6.25;;;;;;;-0.05;100.00;68496.06;5323370;33;33784;-84
2024/01/08 16:13:00;;;;;;;15.27;5.93;;;;;;;-0.19;100.00;68477.34;5323408;33;35284;-84
2024/01/08 16:16:03;;;;;;;10.05;5.12;;;;;;;-0.20;100.00;68476.19;5300248;33;35216;-85
2024/01/08 16:19:06;;;;;;;8.57;4.53;;;;;;;-0.16;100.00;68478.16;5312179;33;33733;-84
2024/01/08 16:22:09;;;;;;;6.40;3.67;;;;;;;0.04;90.74;68505.88;5312433;33;33907;-84
2024/01/08 16:25:13;;;;;;;4.43;3.35;;;;;;;0.19;81.51;68520.50;5326949;33;33589;-85
2024/01/08 16:28:17;;;;;;;7.85;3.67;;;;;;;0.22;75.66;68581.75;5326558;33;33972;-85
2024/01/08 16:31:20;;;;;;;9.65;3.25;;;;;;;0.24;69.75;68527.75;5325222;33;34243;-84
2024/01/08 16:34:24;;;;;;;6.07;3.42;;;;;;;0.33;69.15;68536.06;5326026;33;34212;-84
2024/01/08 16:37:33;;;;;;;7.80;4.00;;;;;;;0.34;65.06;68594.44;5313176;33;34536;-89
2024/01/08 16:40:36;;;;;;;5.53;3.75;;;;;;;0.35;62.68;68595.56;5328488;33;33903;-89
2024/01/08 16:43:39;;;;;;;6.37;3.87;;;;;;;0.37;61.92;68540.66;5301140;33;33430;-85
2024/01/08 16:46:42;;;;;;;9.65;4.37;;;;;;;0.41;61.30;68544.69;5326503;33;33681;-84
2024/01/08 16:49:45;;;;;;;8.50;3.72;;;;;;;0.42;59.26;68549.03;5317933;33;34043;-85
2024/01/08 16:52:48;;;;;;;9.45;3.60;;;;;;;0.43;61.28;68547.00;5316420;33;33734;-85
2024/01/08 16:55:51;;;;;;;7.00;3.70;;;;;;;0.44;59.89;68545.53;5327789;33;33669;-85
